Niagara Falls International Airport
KIAG : now visible

Airfield :











YOU CAN JOIN US ON...

 
LOGIN :

Register | Disclaimer

   EN    FR    IT 

 









Legend :    VFR   Marginal VFR   IFR   Intensive IFR   Very Intensive IFR
Visi :
Ceiling :
>= 8 km
>= 3000ft
5 to 8 km
1000 to 3000 ft
1500m to 5 km
500 to 1000 ft
800 to 1500m
200 to 500 ft
< 800m
< 200 ft
Symbols :   Thunderstorms  Fog  Heavy snow  Heavy precipitations  Wind > 20 kt






- Airport Elevation : 589 ft
- IATA code : IAG


KIAG - Niagara Falls International

CURRENT METAR :
  • 281653Z 11009KT 5SM -RA BR SCT070 OVC090 08/07 A2987 RMK AO2 SLP126 P0012 T00830072

EXPIRED METARs :
  • 281644Z 12009KT 4SM -RA BR SCT070 OVC090 08/07 A2988 RMK AO2 P0011 T00780072
  • 281614Z 07007KT 2 1/2SM RA BR SCT041 BKN048 OVC075 07/06 A2990 RMK AO2 P0006 T00720061
  • 281553Z 09006KT 4SM -RA BR BKN050 BKN070 OVC080 07/06 A2989 RMK AO2 SLP132 P0004 T00720061
  • 281453Z 07007KT 8SM -RA FEW046 BKN070 OVC090 07/06 A2991 RMK AO2 SLP137 P0006 60013 T00670056 58007

TAF KIAG
Valid from the 28 at 17:00 until the 29 at 12:00 UTC


281642Z 2817/2912 08008KT 2SM RA BR OVC040
FM281900 10010KT P6SM -SHRA OVC025
FM290200 10009KT 6SM -RA OVC007
FM291100 15010G18KT 4SM RA OVC007



MET'MAP, your aeronautical weather chart ! - Copyright ORBIFLY December 2007 - Disclaimer

ORBIFLY MET'MAP TEAM :

Programming & Development : Alexandra Zaïnal
Concept & original design : Baudouin d'Aumeries
Assistance for programming : Marc-Olivier Méhu
Technical & hardware support : Manuel Goepfert

Contact : metmap@orbifly.com




SOURCES & CREDITS :

   NOAA       Earth
Advisory